Elmore, Indiana
Current Conditions -  °F | °C
As of 3:55 AM on Thursday 29 Jan 2015 (Local Time) from KDCY Reporting Station
Scattered Clouds Scattered Clouds  
Wind Chill: 32°   Ceiling: Unl
Heat Index: 41°   Visibility: 10mi
Dew Point: 30°   Wind: 18mph
Humidity: 64%   Direction: 170°S
Pressure: 29.83"   Gusts: 23mph
Location:  38.8142°N, 87.0735°W
Report Text: KDCY 290955Z AUTO 17016G20KT 10SM SCT100 05/M01 A2983 RMK AO2 T00511013
Loading
Personal Weather Stations






























Interactive Weather Map New forecast layout! Learn more

10-Day Weather Forecast

Advertisements
Track Severe Weather on mobile